sensor_id;sensor_type;location;lat;lon;timestamp;pressure;altitude;pressure_sealevel;temperature;humidity
36932;BME280;22847;42.654;23.370;2023-06-14T00:00:38;94393.34;;;18.95;nan
36932;BME280;22847;42.654;23.370;2023-06-14T00:03:07;94397.78;;;18.88;nan
36932;BME280;22847;42.654;23.370;2023-06-14T00:05:35;94296.06;;;18.05;nan
36932;BME280;22847;42.654;23.370;2023-06-14T00:08:06;94389.84;;;18.75;nan
36932;BME280;22847;42.654;23.370;2023-06-14T00:10:34;94390.47;;;18.77;nan
36932;BME280;22847;42.654;23.370;2023-06-14T00:13:03;94289.22;;;18.31;nan
36932;BME280;22847;42.654;23.370;2023-06-14T00:15:30;94387.19;;;18.75;nan
36932;BME280;22847;42.654;23.370;2023-06-14T00:17:57;94380.50;;;18.66;nan
36932;BME280;22847;42.654;23.370;2023-06-14T00:20:29;94390.06;;;18.87;nan
36932;BME280;22847;42.654;23.370;2023-06-14T00:22:56;94227.03;;;18.02;nan
36932;BME280;22847;42.654;23.370;2023-06-14T00:25:25;94385.81;;;18.99;nan
36932;BME280;22847;42.654;23.370;2023-06-14T00:27:51;94249.81;;;18.22;nan
36932;BME280;22847;42.654;23.370;2023-06-14T00:30:16;94240.06;;;18.16;nan
36932;BME280;22847;42.654;23.370;2023-06-14T00:32:41;94338.03;;;18.74;nan
36932;BME280;22847;42.654;23.370;2023-06-14T00:35:08;94369.94;;;18.79;nan
36932;BME280;22847;42.654;23.370;2023-06-14T00:37:34;94326.47;;;18.68;nan
36932;BME280;22847;42.654;23.370;2023-06-14T00:40:00;94379.91;;;19.03;nan
36932;BME280;22847;42.654;23.370;2023-06-14T00:42:27;94343.75;;;18.91;nan
36932;BME280;22847;42.654;23.370;2023-06-14T00:44:52;94381.53;;;19.11;nan
36932;BME280;22847;42.654;23.370;2023-06-14T00:47:18;94358.78;;;19.03;nan
36932;BME280;22847;42.654;23.370;2023-06-14T00:49:48;94234.41;;;18.33;nan
36932;BME280;22847;42.654;23.370;2023-06-14T00:52:15;94374.22;;;19.13;nan
36932;BME280;22847;42.654;23.370;2023-06-14T00:54:41;94352.28;;;18.99;nan
36932;BME280;22847;42.654;23.370;2023-06-14T00:57:07;94373.41;;;19.06;nan
36932;BME280;22847;42.654;23.370;2023-06-14T00:59:35;94395.97;;;19.02;nan
36932;BME280;22847;42.654;23.370;2023-06-14T01:02:04;94376.88;;;19.00;nan
36932;BME280;22847;42.654;23.370;2023-06-14T01:04:29;94329.69;;;18.84;nan
36932;BME280;22847;42.654;23.370;2023-06-14T01:10:03;94246.56;;;18.34;nan
36932;BME280;22847;42.654;23.370;2023-06-14T01:12:40;94236.22;;;18.32;nan
36932;BME280;22847;42.654;23.370;2023-06-14T01:15:10;94353.09;;;19.00;nan
36932;BME280;22847;42.654;23.370;2023-06-14T01:17:37;94227.88;;;18.28;nan
36932;BME280;22847;42.654;23.370;2023-06-14T01:20:07;94331.16;;;18.86;nan
36932;BME280;22847;42.654;23.370;2023-06-14T01:22:42;94322.19;;;18.81;nan
36932;BME280;22847;42.654;23.370;2023-06-14T01:25:08;94371.16;;;19.09;nan
36932;BME280;22847;42.654;23.370;2023-06-14T01:27:34;94373.00;;;19.02;nan
36932;BME280;22847;42.654;23.370;2023-06-14T01:29:59;94408.16;;;19.09;nan
36932;BME280;22847;42.654;23.370;2023-06-14T01:32:28;94173.88;;;17.92;nan
36932;BME280;22847;42.654;23.370;2023-06-14T01:34:54;94365.88;;;19.09;nan
36932;BME280;22847;42.654;23.370;2023-06-14T01:37:21;94393.75;;;19.12;nan
36932;BME280;22847;42.654;23.370;2023-06-14T01:39:48;94364.47;;;19.13;nan
36932;BME280;22847;42.654;23.370;2023-06-14T01:42:15;94384.38;;;19.16;nan
36932;BME280;22847;42.654;23.370;2023-06-14T01:44:42;94357.16;;;19.09;nan
36932;BME280;22847;42.654;23.370;2023-06-14T01:47:08;94335.00;;;18.90;nan
36932;BME280;22847;42.654;23.370;2023-06-14T01:49:35;94365.88;;;18.96;nan
36932;BME280;22847;42.654;23.370;2023-06-14T01:52:00;94327.28;;;18.82;nan
36932;BME280;22847;42.654;23.370;2023-06-14T01:54:26;94379.50;;;19.06;nan
36932;BME280;22847;42.654;23.370;2023-06-14T01:56:52;94357.34;;;19.07;nan
36932;BME280;22847;42.654;23.370;2023-06-14T01:59:18;94338.25;;;18.86;nan
36932;BME280;22847;42.654;23.370;2023-06-14T02:01:43;94365.47;;;19.06;nan
36932;BME280;22847;42.654;23.370;2023-06-14T02:04:11;94349.81;;;18.91;nan
36932;BME280;22847;42.654;23.370;2023-06-14T02:06:37;94372.38;;;19.00;nan
36932;BME280;22847;42.654;23.370;2023-06-14T02:09:02;94407.16;;;18.97;nan
36932;BME280;22847;42.654;23.370;2023-06-14T02:11:28;94382.56;;;18.90;nan
36932;BME280;22847;42.654;23.370;2023-06-14T02:13:54;94247.97;;;18.10;nan
36932;BME280;22847;42.654;23.370;2023-06-14T02:16:20;94363.44;;;18.82;nan
36932;BME280;22847;42.654;23.370;2023-06-14T02:18:45;94393.72;;;18.86;nan
36932;BME280;22847;42.654;23.370;2023-06-14T02:21:11;94400.44;;;18.88;nan
36932;BME280;22847;42.654;23.370;2023-06-14T02:23:37;94386.78;;;18.78;nan
36932;BME280;22847;42.654;23.370;2023-06-14T02:26:02;94384.78;;;18.80;nan
36932;BME280;22847;42.654;23.370;2023-06-14T02:28:28;94306.28;;;18.35;nan
36932;BME280;22847;42.654;23.370;2023-06-14T02:30:53;94386.00;;;18.84;nan
36932;BME280;22847;42.654;23.370;2023-06-14T02:33:18;94382.13;;;18.80;nan
36932;BME280;22847;42.654;23.370;2023-06-14T02:35:45;94420.16;;;18.92;nan
36932;BME280;22847;42.654;23.370;2023-06-14T02:38:11;94310.53;;;18.29;nan
36932;BME280;22847;42.654;23.370;2023-06-14T02:40:37;94418.31;;;18.86;nan
36932;BME280;22847;42.654;23.370;2023-06-14T02:43:02;94410.59;;;18.91;nan
36932;BME280;22847;42.654;23.370;2023-06-14T02:45:27;94390.47;;;18.84;nan
36932;BME280;22847;42.654;23.370;2023-06-14T02:47:53;94393.72;;;18.79;nan
36932;BME280;22847;42.654;23.370;2023-06-14T02:50:20;94417.88;;;18.69;nan
36932;BME280;22847;42.654;23.370;2023-06-14T02:52:46;94277.78;;;18.10;nan
36932;BME280;22847;42.654;23.370;2023-06-14T02:55:12;94400.19;;;18.70;nan
36932;BME280;22847;42.654;23.370;2023-06-14T02:57:38;94416.28;;;18.82;nan
36932;BME280;22847;42.654;23.370;2023-06-14T03:00:04;94299.97;;;18.22;nan
36932;BME280;22847;42.654;23.370;2023-06-14T03:02:30;94427.84;;;18.87;nan
36932;BME280;22847;42.654;23.370;2023-06-14T03:04:55;94256.59;;;17.71;nan
36932;BME280;22847;42.654;23.370;2023-06-14T03:07:21;94426.44;;;18.91;nan
36932;BME280;22847;42.654;23.370;2023-06-14T03:09:48;94248.97;;;17.96;nan
36932;BME280;22847;42.654;23.370;2023-06-14T03:12:14;94404.09;;;18.94;nan
36932;BME280;22847;42.654;23.370;2023-06-14T03:14:40;94414.47;;;18.95;nan
36932;BME280;22847;42.654;23.370;2023-06-14T03:17:07;94406.72;;;18.81;nan
36932;BME280;22847;42.654;23.370;2023-06-14T03:19:33;94408.16;;;18.90;nan
36932;BME280;22847;42.654;23.370;2023-06-14T03:21:58;94414.25;;;18.84;nan
36932;BME280;22847;42.654;23.370;2023-06-14T03:24:25;94414.84;;;18.73;nan
36932;BME280;22847;42.654;23.370;2023-06-14T03:26:53;94406.69;;;18.74;nan
36932;BME280;22847;42.654;23.370;2023-06-14T03:29:18;94436.38;;;18.76;nan
36932;BME280;22847;42.654;23.370;2023-06-14T03:31:57;94433.13;;;18.74;nan
36932;BME280;22847;42.654;23.370;2023-06-14T03:34:23;94427.63;;;18.69;nan
36932;BME280;22847;42.654;23.370;2023-06-14T03:36:48;94295.25;;;18.11;nan
36932;BME280;22847;42.654;23.370;2023-06-14T03:39:14;94289.13;;;17.91;nan
36932;BME280;22847;42.654;23.370;2023-06-14T03:41:40;94249.81;;;17.55;nan
36932;BME280;22847;42.654;23.370;2023-06-14T03:44:05;94417.44;;;18.53;nan
36932;BME280;22847;42.654;23.370;2023-06-14T03:46:30;94405.56;;;18.36;nan
36932;BME280;22847;42.654;23.370;2023-06-14T03:48:56;94418.66;;;18.57;nan
36932;BME280;22847;42.654;23.370;2023-06-14T03:51:22;94316.72;;;17.95;nan
36932;BME280;22847;42.654;23.370;2023-06-14T03:53:48;94432.53;;;18.72;nan
36932;BME280;22847;42.654;23.370;2023-06-14T03:56:13;94414.63;;;18.67;nan
36932;BME280;22847;42.654;23.370;2023-06-14T03:58:38;94430.69;;;18.79;nan
36932;BME280;22847;42.654;23.370;2023-06-14T04:01:04;94438.66;;;18.86;nan
36932;BME280;22847;42.654;23.370;2023-06-14T04:03:29;94418.09;;;18.81;nan
36932;BME280;22847;42.654;23.370;2023-06-14T04:05:55;94405.69;;;18.75;nan
36932;BME280;22847;42.654;23.370;2023-06-14T04:08:22;94405.06;;;18.66;nan
36932;BME280;22847;42.654;23.370;2023-06-14T04:10:47;94433.94;;;18.75;nan
36932;BME280;22847;42.654;23.370;2023-06-14T04:13:13;94429.50;;;18.88;nan
36932;BME280;22847;42.654;23.370;2023-06-14T04:15:39;94430.31;;;19.02;nan
36932;BME280;22847;42.654;23.370;2023-06-14T04:20:51;94436.22;;;19.04;nan
36932;BME280;22847;42.654;23.370;2023-06-14T04:23:18;94436.44;;;19.02;nan
36932;BME280;22847;42.654;23.370;2023-06-14T04:25:44;94412.22;;;18.92;nan
36932;BME280;22847;42.654;23.370;2023-06-14T04:28:14;94428.09;;;19.05;nan
36932;BME280;22847;42.654;23.370;2023-06-14T04:30:44;94365.28;;;18.68;nan
36932;BME280;22847;42.654;23.370;2023-06-14T04:33:10;94413.28;;;19.04;nan
36932;BME280;22847;42.654;23.370;2023-06-14T04:35:36;94419.16;;;19.13;nan
36932;BME280;22847;42.654;23.370;2023-06-14T04:38:03;94250.19;;;18.06;nan
36932;BME280;22847;42.654;23.370;2023-06-14T04:40:30;94437.06;;;19.31;nan
36932;BME280;22847;42.654;23.370;2023-06-14T04:42:56;94451.28;;;19.36;nan
36932;BME280;22847;42.654;23.370;2023-06-14T04:45:23;94429.94;;;19.38;nan
36932;BME280;22847;42.654;23.370;2023-06-14T04:47:49;94434.84;;;19.47;nan
36932;BME280;22847;42.654;23.370;2023-06-14T04:50:15;94407.56;;;19.40;nan
36932;BME280;22847;42.654;23.370;2023-06-14T04:52:41;94445.00;;;19.57;nan
36932;BME280;22847;42.654;23.370;2023-06-14T04:55:08;94436.84;;;19.65;nan
36932;BME280;22847;42.654;23.370;2023-06-14T04:57:33;94369.13;;;19.25;nan
36932;BME280;22847;42.654;23.370;2023-06-14T05:00:00;94435.03;;;19.59;nan
36932;BME280;22847;42.654;23.370;2023-06-14T05:02:26;94298.19;;;18.69;nan
36932;BME280;22847;42.654;23.370;2023-06-14T05:04:53;94451.09;;;19.51;nan
36932;BME280;22847;42.654;23.370;2023-06-14T05:07:18;94399.84;;;19.19;nan
36932;BME280;22847;42.654;23.370;2023-06-14T05:09:45;94402.28;;;19.21;nan
36932;BME280;22847;42.654;23.370;2023-06-14T05:12:11;94444.41;;;19.62;nan
36932;BME280;22847;42.654;23.370;2023-06-14T05:14:36;94441.94;;;19.60;nan
36932;BME280;22847;42.654;23.370;2023-06-14T05:17:02;94328.06;;;19.02;nan
36932;BME280;22847;42.654;23.370;2023-06-14T05:19:28;94455.16;;;19.73;nan
36932;BME280;22847;42.654;23.370;2023-06-14T05:21:54;94434.00;;;19.60;nan
36932;BME280;22847;42.654;23.370;2023-06-14T05:24:19;94351.88;;;19.22;nan
36932;BME280;22847;42.654;23.370;2023-06-14T05:26:45;94357.53;;;19.32;nan
36932;BME280;22847;42.654;23.370;2023-06-14T05:29:11;94479.59;;;19.75;nan
36932;BME280;22847;42.654;23.370;2023-06-14T05:31:37;94467.56;;;19.99;nan
36932;BME280;22847;42.654;23.370;2023-06-14T05:34:02;94472.25;;;19.77;nan
36932;BME280;22847;42.654;23.370;2023-06-14T05:36:28;94439.31;;;19.60;nan
36932;BME280;22847;42.654;23.370;2023-06-14T05:38:54;94472.22;;;20.03;nan
36932;BME280;22847;42.654;23.370;2023-06-14T05:41:26;94464.88;;;20.12;nan
36932;BME280;22847;42.654;23.370;2023-06-14T05:43:52;94435.53;;;20.14;nan
36932;BME280;22847;42.654;23.370;2023-06-14T05:46:17;94338.41;;;19.63;nan
36932;BME280;22847;42.654;23.370;2023-06-14T05:48:47;94475.50;;;20.63;nan
36932;BME280;22847;42.654;23.370;2023-06-14T05:51:13;94459.03;;;20.55;nan
36932;BME280;22847;42.654;23.370;2023-06-14T05:53:39;94473.91;;;20.62;nan
36932;BME280;22847;42.654;23.370;2023-06-14T05:56:04;94469.63;;;20.55;nan
36932;BME280;22847;42.654;23.370;2023-06-14T05:58:29;94452.34;;;20.52;nan
36932;BME280;22847;42.654;23.370;2023-06-14T06:00:55;94379.09;;;20.20;nan
36932;BME280;22847;42.654;23.370;2023-06-14T06:03:20;94494.16;;;20.88;nan
36932;BME280;22847;42.654;23.370;2023-06-14T06:05:46;94481.72;;;20.82;nan
36932;BME280;22847;42.654;23.370;2023-06-14T06:08:11;94441.91;;;20.57;nan
36932;BME280;22847;42.654;23.370;2023-06-14T06:10:37;94490.13;;;20.79;nan
36932;BME280;22847;42.654;23.370;2023-06-14T06:13:02;94490.72;;;21.12;nan
36932;BME280;22847;42.654;23.370;2023-06-14T06:15:28;94296.59;;;20.23;nan
36932;BME280;22847;42.654;23.370;2023-06-14T06:17:53;94493.16;;;21.52;nan
36932;BME280;22847;42.654;23.370;2023-06-14T06:20:18;94489.25;;;21.29;nan
36932;BME280;22847;42.654;23.370;2023-06-14T06:22:44;94364.31;;;20.81;nan
36932;BME280;22847;42.654;23.370;2023-06-14T06:25:09;94502.34;;;21.49;nan
36932;BME280;22847;42.654;23.370;2023-06-14T06:27:35;94481.50;;;21.28;nan
36932;BME280;22847;42.654;23.370;2023-06-14T06:30:03;94491.66;;;21.31;nan
36932;BME280;22847;42.654;23.370;2023-06-14T06:32:28;94490.75;;;21.19;nan
36932;BME280;22847;42.654;23.370;2023-06-14T06:34:53;94488.84;;;21.26;nan
36932;BME280;22847;42.654;23.370;2023-06-14T06:37:19;94371.41;;;20.56;nan
36932;BME280;22847;42.654;23.370;2023-06-14T06:39:44;94497.69;;;21.20;nan
36932;BME280;22847;42.654;23.370;2023-06-14T06:42:10;94523.31;;;21.26;nan
36932;BME280;22847;42.654;23.370;2023-06-14T06:44:36;94498.69;;;21.19;nan
36932;BME280;22847;42.654;23.370;2023-06-14T06:47:01;94505.84;;;21.12;nan
36932;BME280;22847;42.654;23.370;2023-06-14T06:49:27;94492.06;;;20.97;nan
36932;BME280;22847;42.654;23.370;2023-06-14T06:52:03;94525.03;;;21.14;nan
36932;BME280;22847;42.654;23.370;2023-06-14T06:54:29;94520.75;;;21.13;nan
36932;BME280;22847;42.654;23.370;2023-06-14T06:56:55;94521.03;;;20.98;nan
36932;BME280;22847;42.654;23.370;2023-06-14T06:59:21;94508.34;;;21.00;nan
36932;BME280;22847;42.654;23.370;2023-06-14T07:01:46;94374.78;;;20.32;nan
36932;BME280;22847;42.654;23.370;2023-06-14T07:04:12;94497.69;;;21.20;nan
36932;BME280;22847;42.654;23.370;2023-06-14T07:06:38;94519.66;;;21.27;nan
36932;BME280;22847;42.654;23.370;2023-06-14T07:09:03;94514.53;;;21.32;nan
36932;BME280;22847;42.654;23.370;2023-06-14T07:11:31;94497.22;;;21.29;nan
36932;BME280;22847;42.654;23.370;2023-06-14T07:13:57;94383.13;;;20.73;nan
36932;BME280;22847;42.654;23.370;2023-06-14T07:16:22;94504.53;;;21.59;nan
36932;BME280;22847;42.654;23.370;2023-06-14T07:18:48;94495.66;;;21.71;nan
36932;BME280;22847;42.654;23.370;2023-06-14T07:21:14;94477.94;;;21.90;nan
36932;BME280;22847;42.654;23.370;2023-06-14T07:23:39;94481.84;;;22.49;nan
36932;BME280;22847;42.654;23.370;2023-06-14T07:26:04;94506.09;;;23.37;nan
36932;BME280;22847;42.654;23.370;2023-06-14T07:28:30;94368.88;;;22.88;nan
36932;BME280;22847;42.654;23.370;2023-06-14T07:30:55;94501.69;;;23.42;nan
36932;BME280;22847;42.654;23.370;2023-06-14T07:33:21;94494.84;;;23.65;nan
36932;BME280;22847;42.654;23.370;2023-06-14T07:35:48;94472.63;;;23.59;nan
36932;BME280;22847;42.654;23.370;2023-06-14T07:38:14;94408.41;;;23.14;nan
36932;BME280;22847;42.654;23.370;2023-06-14T07:40:39;94492.31;;;23.70;nan
36932;BME280;22847;42.654;23.370;2023-06-14T07:43:05;94410.88;;;23.39;nan
36932;BME280;22847;42.654;23.370;2023-06-14T07:45:30;94365.53;;;23.69;nan
36932;BME280;22847;42.654;23.370;2023-06-14T07:47:56;94484.38;;;24.91;nan
36932;BME280;22847;42.654;23.370;2023-06-14T07:50:21;94491.34;;;24.92;nan
36932;BME280;22847;42.654;23.370;2023-06-14T07:52:47;94384.31;;;23.62;nan
36932;BME280;22847;42.654;23.370;2023-06-14T07:55:13;94499.91;;;24.31;nan
36932;BME280;22847;42.654;23.370;2023-06-14T07:57:40;94488.00;;;23.57;nan
36932;BME280;22847;42.654;23.370;2023-06-14T08:00:06;94510.38;;;23.79;nan
36932;BME280;22847;42.654;23.370;2023-06-14T08:02:32;94483.06;;;23.42;nan
36932;BME280;22847;42.654;23.370;2023-06-14T08:04:57;94504.44;;;23.54;nan
36932;BME280;22847;42.654;23.370;2023-06-14T08:07:23;94401.91;;;23.10;nan
36932;BME280;22847;42.654;23.370;2023-06-14T08:09:49;94473.94;;;23.38;nan
36932;BME280;22847;42.654;23.370;2023-06-14T08:12:15;94511.41;;;23.78;nan
36932;BME280;22847;42.654;23.370;2023-06-14T08:14:42;94509.84;;;24.24;nan
36932;BME280;22847;42.654;23.370;2023-06-14T08:17:07;94517.50;;;24.43;nan
36932;BME280;22847;42.654;23.370;2023-06-14T08:19:33;94392.88;;;23.99;nan
36932;BME280;22847;42.654;23.370;2023-06-14T08:21:58;94493.81;;;24.70;nan
36932;BME280;22847;42.654;23.370;2023-06-14T08:24:25;94468.59;;;24.38;nan
36932;BME280;22847;42.654;23.370;2023-06-14T08:26:52;94518.09;;;24.22;nan
36932;BME280;22847;42.654;23.370;2023-06-14T08:29:18;94529.91;;;24.26;nan
36932;BME280;22847;42.654;23.370;2023-06-14T08:31:43;94527.19;;;24.15;nan
36932;BME280;22847;42.654;23.370;2023-06-14T08:34:09;94517.72;;;24.07;nan
36932;BME280;22847;42.654;23.370;2023-06-14T08:36:35;94523.19;;;24.24;nan
36932;BME280;22847;42.654;23.370;2023-06-14T08:39:01;94530.72;;;24.27;nan
36932;BME280;22847;42.654;23.370;2023-06-14T08:41:28;94488.53;;;24.24;nan
36932;BME280;22847;42.654;23.370;2023-06-14T08:43:55;94308.59;;;23.23;nan
36932;BME280;22847;42.654;23.370;2023-06-14T08:46:21;94520.28;;;24.37;nan
36932;BME280;22847;42.654;23.370;2023-06-14T08:48:49;94512.97;;;24.32;nan
36932;BME280;22847;42.654;23.370;2023-06-14T08:51:18;94510.19;;;24.27;nan
36932;BME280;22847;42.654;23.370;2023-06-14T08:53:44;94515.53;;;24.27;nan
36932;BME280;22847;42.654;23.370;2023-06-14T08:56:10;94368.41;;;23.32;nan
36932;BME280;22847;42.654;23.370;2023-06-14T08:58:42;94495.50;;;24.25;nan
36932;BME280;22847;42.654;23.370;2023-06-14T09:01:11;94511.25;;;24.26;nan
36932;BME280;22847;42.654;23.370;2023-06-14T09:03:42;94506.34;;;24.12;nan
36932;BME280;22847;42.654;23.370;2023-06-14T09:06:08;94393.34;;;23.49;nan
36932;BME280;22847;42.654;23.370;2023-06-14T09:08:47;94486.56;;;24.31;nan
36932;BME280;22847;42.654;23.370;2023-06-14T09:11:15;94528.13;;;24.55;nan
36932;BME280;22847;42.654;23.370;2023-06-14T09:13:41;94499.94;;;24.71;nan
36932;BME280;22847;42.654;23.370;2023-06-14T09:16:07;94501.53;;;24.83;nan
36932;BME280;22847;42.654;23.370;2023-06-14T09:18:38;94501.69;;;24.88;nan
36932;BME280;22847;42.654;23.370;2023-06-14T09:21:06;94493.81;;;24.70;nan
36932;BME280;22847;42.654;23.370;2023-06-14T09:23:43;94502.84;;;24.69;nan
36932;BME280;22847;42.654;23.370;2023-06-14T09:26:11;94484.34;;;24.28;nan
36932;BME280;22847;42.654;23.370;2023-06-14T09:28:41;94501.97;;;24.29;nan
36932;BME280;22847;42.654;23.370;2023-06-14T09:31:07;94484.69;;;24.08;nan
36932;BME280;22847;42.654;23.370;2023-06-14T09:33:34;94500.69;;;24.08;nan
36932;BME280;22847;42.654;23.370;2023-06-14T09:35:59;94505.91;;;24.03;nan
36932;BME280;22847;42.654;23.370;2023-06-14T09:38:25;94496.03;;;23.92;nan
36932;BME280;22847;42.654;23.370;2023-06-14T09:40:51;94410.00;;;23.56;nan
36932;BME280;22847;42.654;23.370;2023-06-14T09:43:17;94389.88;;;23.49;nan
36932;BME280;22847;42.654;23.370;2023-06-14T09:45:44;94476.25;;;24.23;nan
36932;BME280;22847;42.654;23.370;2023-06-14T09:48:11;94448.34;;;24.25;nan
36932;BME280;22847;42.654;23.370;2023-06-14T09:50:37;94473.41;;;24.76;nan
36932;BME280;22847;42.654;23.370;2023-06-14T09:53:07;94353.22;;;24.26;nan
36932;BME280;22847;42.654;23.370;2023-06-14T09:55:36;94486.00;;;24.92;nan
36932;BME280;22847;42.654;23.370;2023-06-14T09:58:05;94483.94;;;24.71;nan
36932;BME280;22847;42.654;23.370;2023-06-14T10:00:32;94387.97;;;24.08;nan
36932;BME280;22847;42.654;23.370;2023-06-14T10:03:03;94477.25;;;24.57;nan
36932;BME280;22847;42.654;23.370;2023-06-14T10:05:31;94367.25;;;23.98;nan
36932;BME280;22847;42.654;23.370;2023-06-14T10:08:06;94469.06;;;24.98;nan
36932;BME280;22847;42.654;23.370;2023-06-14T10:10:33;94468.53;;;25.58;nan
36932;BME280;22847;42.654;23.370;2023-06-14T10:12:58;94463.13;;;25.86;nan
36932;BME280;22847;42.654;23.370;2023-06-14T10:15:51;94469.84;;;26.05;nan
36932;BME280;22847;42.654;23.370;2023-06-14T10:24:13;94430.31;;;26.68;nan
36932;BME280;22847;42.654;23.370;2023-06-14T10:26:51;94458.84;;;26.84;nan
36932;BME280;22847;42.654;23.370;2023-06-14T10:29:17;94431.63;;;26.65;nan
36932;BME280;22847;42.654;23.370;2023-06-14T10:31:47;94437.22;;;26.42;nan
36932;BME280;22847;42.654;23.370;2023-06-14T10:34:22;94453.63;;;26.29;nan
36932;BME280;22847;42.654;23.370;2023-06-14T10:37:19;94455.34;;;26.01;nan
36932;BME280;22847;42.654;23.370;2023-06-14T10:39:45;94411.00;;;25.67;nan
36932;BME280;22847;42.654;23.370;2023-06-14T10:42:12;94426.16;;;25.61;nan
36932;BME280;22847;42.654;23.370;2023-06-14T10:44:51;94320.28;;;24.88;nan
36932;BME280;22847;42.654;23.370;2023-06-14T10:47:29;94447.41;;;25.73;nan
36932;BME280;22847;42.654;23.370;2023-06-14T10:50:02;94325.97;;;24.35;nan
36932;BME280;22847;42.654;23.370;2023-06-14T10:52:29;94364.25;;;24.86;nan
36932;BME280;22847;42.654;23.370;2023-06-14T10:57:39;94408.91;;;26.07;nan
36932;BME280;22847;42.654;23.370;2023-06-14T11:00:06;94435.75;;;26.51;nan
36932;BME280;22847;42.654;23.370;2023-06-14T11:05:25;94379.94;;;25.61;nan
36932;BME280;22847;42.654;23.370;2023-06-14T11:10:35;94411.38;;;25.92;nan
36932;BME280;22847;42.654;23.370;2023-06-14T11:13:02;94402.34;;;25.60;nan
36932;BME280;22847;42.654;23.370;2023-06-14T11:15:36;94422.47;;;25.34;nan
36932;BME280;22847;42.654;23.370;2023-06-14T11:18:04;94386.81;;;25.57;nan
36932;BME280;22847;42.654;23.370;2023-06-14T11:20:32;94418.59;;;25.92;nan
36932;BME280;22847;42.654;23.370;2023-06-14T11:22:58;94410.16;;;25.16;nan
36932;BME280;22847;42.654;23.370;2023-06-14T11:25:24;94295.34;;;24.38;nan
36932;BME280;22847;42.654;23.370;2023-06-14T11:27:50;94400.69;;;25.25;nan
36932;BME280;22847;42.654;23.370;2023-06-14T11:30:16;94398.63;;;25.61;nan
36932;BME280;22847;42.654;23.370;2023-06-14T11:32:41;94378.06;;;25.78;nan
36932;BME280;22847;42.654;23.370;2023-06-14T11:35:08;94379.13;;;25.99;nan
36932;BME280;22847;42.654;23.370;2023-06-14T11:37:36;94299.75;;;25.56;nan
36932;BME280;22847;42.654;23.370;2023-06-14T11:40:03;94285.50;;;25.33;nan
36932;BME280;22847;42.654;23.370;2023-06-14T11:42:33;94308.72;;;25.66;nan
36932;BME280;22847;42.654;23.370;2023-06-14T11:44:58;94386.97;;;26.22;nan
36932;BME280;22847;42.654;23.370;2023-06-14T11:47:24;94355.09;;;25.99;nan
36932;BME280;22847;42.654;23.370;2023-06-14T11:49:58;94398.53;;;25.89;nan
36932;BME280;22847;42.654;23.370;2023-06-14T11:52:23;94351.75;;;25.37;nan
36932;BME280;22847;42.654;23.370;2023-06-14T11:54:49;94362.28;;;25.43;nan
36932;BME280;22847;42.654;23.370;2023-06-14T11:57:17;94389.22;;;25.42;nan
36932;BME280;22847;42.654;23.370;2023-06-14T11:59:44;94376.50;;;25.49;nan
36932;BME280;22847;42.654;23.370;2023-06-14T12:02:14;94383.47;;;25.83;nan
36932;BME280;22847;42.654;23.370;2023-06-14T12:04:43;94323.47;;;25.91;nan
36932;BME280;22847;42.654;23.370;2023-06-14T12:07:13;94354.41;;;25.87;nan
36932;BME280;22847;42.654;23.370;2023-06-14T12:10:03;94371.28;;;25.70;nan
36932;BME280;22847;42.654;23.370;2023-06-14T12:12:36;94337.47;;;25.26;nan
36932;BME280;22847;42.654;23.370;2023-06-14T12:15:06;94351.03;;;25.74;nan
36932;BME280;22847;42.654;23.370;2023-06-14T12:17:33;94214.63;;;25.04;nan
36932;BME280;22847;42.654;23.370;2023-06-14T12:20:05;94356.84;;;25.88;nan
36932;BME280;22847;42.654;23.370;2023-06-14T12:22:34;94330.47;;;25.42;nan
36932;BME280;22847;42.654;23.370;2023-06-14T12:24:59;94343.03;;;25.58;nan
36932;BME280;22847;42.654;23.370;2023-06-14T12:27:25;94231.50;;;24.76;nan
36932;BME280;22847;42.654;23.370;2023-06-14T12:30:03;94318.81;;;25.31;nan
36932;BME280;22847;42.654;23.370;2023-06-14T12:32:30;94318.91;;;25.36;nan
36932;BME280;22847;42.654;23.370;2023-06-14T12:34:55;94224.72;;;24.69;nan
36932;BME280;22847;42.654;23.370;2023-06-14T12:37:21;94212.91;;;24.65;nan
36932;BME280;22847;42.654;23.370;2023-06-14T12:39:46;94337.44;;;25.43;nan
36932;BME280;22847;42.654;23.370;2023-06-14T12:42:12;94245.56;;;24.72;nan
36932;BME280;22847;42.654;23.370;2023-06-14T12:44:39;94329.19;;;24.94;nan
36932;BME280;22847;42.654;23.370;2023-06-14T12:47:06;94329.72;;;24.51;nan
36932;BME280;22847;42.654;23.370;2023-06-14T12:49:32;94304.69;;;24.69;nan
36932;BME280;22847;42.654;23.370;2023-06-14T12:51:58;94328.53;;;24.87;nan
36932;BME280;22847;42.654;23.370;2023-06-14T12:54:23;94324.81;;;24.88;nan
36932;BME280;22847;42.654;23.370;2023-06-14T12:56:53;94329.47;;;24.81;nan
36932;BME280;22847;42.654;23.370;2023-06-14T12:59:20;94305.81;;;24.28;nan
36932;BME280;22847;42.654;23.370;2023-06-14T13:01:45;94322.81;;;24.67;nan
36932;BME280;22847;42.654;23.370;2023-06-14T13:04:12;94203.63;;;23.66;nan
36932;BME280;22847;42.654;23.370;2023-06-14T13:06:38;94292.16;;;24.24;nan
36932;BME280;22847;42.654;23.370;2023-06-14T13:09:04;94341.28;;;24.05;nan
36932;BME280;22847;42.654;23.370;2023-06-14T13:11:30;94325.13;;;23.95;nan
36932;BME280;22847;42.654;23.370;2023-06-14T13:13:56;94327.47;;;23.56;nan
36932;BME280;22847;42.654;23.370;2023-06-14T13:16:21;94218.38;;;22.98;nan
36932;BME280;22847;42.654;23.370;2023-06-14T13:18:47;94331.16;;;23.09;nan
36932;BME280;22847;42.654;23.370;2023-06-14T13:21:12;94242.16;;;22.70;nan
36932;BME280;22847;42.654;23.370;2023-06-14T13:23:37;94359.81;;;23.07;nan
36932;BME280;22847;42.654;23.370;2023-06-14T13:26:03;94384.28;;;22.97;nan
36932;BME280;22847;42.654;23.370;2023-06-14T13:28:28;94373.09;;;22.95;nan